createdAt,value
2023-04-22T00:00:55.418Z,19.94
2023-04-22T00:03:23.673Z,20.92
2023-04-22T00:06:04.629Z,20.44
2023-04-22T00:08:32.447Z,19.91
2023-04-22T00:11:01.014Z,20.19
2023-04-22T00:13:29.873Z,21.36
2023-04-22T00:16:01.955Z,20.92
2023-04-22T00:18:30.076Z,20.86
2023-04-22T00:20:58.047Z,21.26
2023-04-22T00:23:31.518Z,20.27
2023-04-22T00:25:59.828Z,21.44
2023-04-22T00:28:29.206Z,20.73
2023-04-22T00:30:58.913Z,20.46
2023-04-22T00:33:30.195Z,21.04
2023-04-22T00:36:02.340Z,21.04
2023-04-22T00:38:30.162Z,19.78
2023-04-22T00:41:00.022Z,20.27
2023-04-22T00:43:27.841Z,21.10
2023-04-22T00:45:58.162Z,21.40
2023-04-22T00:48:28.893Z,21.25
2023-04-22T00:50:57.220Z,20.84
2023-04-22T00:53:25.274Z,21.12
2023-04-22T00:55:53.997Z,20.01
2023-04-22T00:58:26.195Z,19.74
2023-04-22T01:00:54.194Z,20.34
2023-04-22T01:03:22.517Z,20.21
2023-04-22T01:05:51.126Z,20.44
2023-04-22T01:08:29.931Z,19.71
2023-04-22T01:10:59.063Z,20.06
2023-04-22T01:13:27.187Z,19.95
2023-04-22T01:15:57.590Z,20.30
2023-04-22T01:18:29.148Z,20.38
2023-04-22T01:20:57.986Z,20.73
2023-04-22T01:23:26.047Z,20.45
2023-04-22T01:25:56.073Z,20.60
2023-04-22T01:28:24.881Z,19.59
2023-04-22T01:30:59.587Z,19.93
2023-04-22T01:33:27.930Z,21.35
2023-04-22T01:35:55.997Z,20.21
2023-04-22T01:38:24.410Z,19.81
2023-04-22T01:40:52.919Z,20.06
2023-04-22T01:43:23.515Z,20.53
2023-04-22T01:45:51.728Z,20.59
2023-04-22T01:48:19.786Z,20.23
2023-04-22T01:50:47.787Z,21.30
2023-04-22T01:53:15.983Z,20.43
2023-04-22T01:55:45.398Z,21.21
2023-04-22T01:58:14.676Z,20.20
2023-04-22T02:00:43.122Z,20.02
2023-04-22T02:03:11.281Z,20.25
2023-04-22T02:05:40.518Z,21.10
2023-04-22T02:08:09.233Z,19.81
2023-04-22T02:10:37.470Z,21.13
2023-04-22T02:13:06.332Z,20.59
2023-04-22T02:15:34.482Z,20.41
2023-04-22T02:18:05.150Z,20.90
2023-04-22T02:20:33.172Z,20.96
2023-04-22T02:23:01.883Z,20.03
2023-04-22T02:25:30.252Z,20.08
2023-04-22T02:28:02.031Z,19.69
2023-04-22T02:30:30.424Z,19.54
2023-04-22T02:32:58.456Z,21.09
2023-04-22T02:35:28.671Z,20.27
2023-04-22T02:37:56.810Z,21.05
2023-04-22T02:40:31.099Z,19.88
2023-04-22T02:42:59.125Z,20.14
2023-04-22T02:45:30.839Z,19.98
2023-04-22T02:47:59.057Z,21.27
2023-04-22T02:50:26.997Z,20.33
2023-04-22T02:52:56.299Z,20.94
2023-04-22T02:55:25.078Z,21.20
2023-04-22T02:57:53.191Z,21.11
2023-04-22T03:00:23.156Z,21.12
2023-04-22T03:02:54.472Z,21.32
2023-04-22T03:05:33.807Z,21.14
2023-04-22T03:08:05.092Z,21.15
2023-04-22T03:10:33.021Z,21.28
2023-04-22T03:13:00.941Z,21.27
2023-04-22T03:15:33.406Z,21.05
2023-04-22T03:18:01.515Z,20.89
2023-04-22T03:20:30.990Z,21.19
2023-04-22T03:22:58.950Z,21.09
2023-04-22T03:25:28.489Z,21.08
2023-04-22T03:27:57.873Z,20.02
2023-04-22T03:30:26.663Z,20.73
2023-04-22T03:32:54.888Z,20.29
2023-04-22T03:35:27.256Z,20.35
2023-04-22T03:38:00.449Z,21.30
2023-04-22T03:40:33.126Z,20.29
2023-04-22T03:43:04.549Z,20.52
2023-04-22T03:45:33.302Z,20.40
2023-04-22T03:48:23.071Z,21.12
2023-04-22T03:50:53.221Z,19.95
2023-04-22T03:53:21.801Z,21.03
2023-04-22T03:55:52.694Z,21.28
2023-04-22T03:58:20.778Z,20.53
2023-04-22T04:00:50.221Z,20.65
2023-04-22T04:03:20.243Z,20.71
2023-04-22T04:05:54.229Z,19.55
2023-04-22T04:08:23.284Z,21.18
2023-04-22T04:10:52.452Z,20.78
2023-04-22T04:13:20.299Z,21.22
2023-04-22T04:16:04.631Z,21.24
2023-04-22T04:18:33.692Z,20.90
2023-04-22T04:21:02.254Z,21.22
2023-04-22T04:23:34.244Z,20.34
2023-04-22T04:26:03.062Z,20.15
2023-04-22T04:28:33.125Z,19.87
2023-04-22T04:31:12.462Z,20.94
2023-04-22T04:33:46.242Z,19.56
2023-04-22T04:36:14.480Z,20.20
2023-04-22T04:38:43.923Z,21.12
2023-04-22T04:41:12.950Z,20.97
2023-04-22T04:43:40.965Z,21.07
2023-04-22T04:46:30.115Z,20.91
2023-04-22T04:49:00.890Z,21.26
2023-04-22T04:51:35.480Z,20.83
2023-04-22T04:54:03.575Z,20.33
2023-04-22T04:56:36.672Z,20.71
2023-04-22T04:59:04.725Z,19.65
2023-04-22T05:01:35.519Z,20.19
2023-04-22T05:04:08.401Z,19.79
2023-04-22T05:06:42.507Z,20.81
2023-04-22T05:09:10.899Z,20.24
2023-04-22T05:11:38.988Z,21.17
2023-04-22T05:14:14.495Z,20.21
2023-04-22T05:16:43.968Z,20.50
2023-04-22T05:19:11.862Z,20.26
2023-04-22T05:21:39.613Z,20.40
2023-04-22T05:24:07.689Z,19.69
2023-04-22T05:26:36.777Z,20.00
2023-04-22T05:29:11.058Z,19.90
2023-04-22T05:31:39.304Z,20.27
2023-04-22T05:34:08.444Z,20.72
2023-04-22T05:36:36.325Z,19.73
2023-04-22T05:39:04.790Z,19.81
2023-04-22T05:41:33.969Z,20.23
2023-04-22T05:44:02.169Z,19.48
2023-04-22T05:46:31.476Z,19.69
2023-04-22T05:48:59.721Z,19.88
2023-04-22T05:51:46.484Z,20.35
2023-04-22T05:54:18.353Z,20.23
2023-04-22T05:56:46.322Z,21.06
2023-04-22T05:59:14.173Z,21.10
2023-04-22T06:01:43.172Z,19.59
2023-04-22T06:04:21.638Z,19.52
2023-04-22T06:06:53.962Z,20.53
2023-04-22T06:09:22.621Z,20.29
2023-04-22T06:11:50.567Z,20.57
2023-04-22T06:14:28.795Z,21.08
2023-04-22T06:16:59.302Z,20.54
2023-04-22T06:19:28.257Z,19.95
2023-04-22T06:21:56.482Z,20.51
2023-04-22T06:24:25.075Z,19.49
2023-04-22T06:26:55.727Z,20.85
2023-04-22T06:29:23.992Z,20.19
2023-04-22T06:31:53.726Z,20.16
2023-04-22T06:34:22.745Z,20.51
2023-04-22T06:36:53.246Z,20.82
2023-04-22T06:39:21.833Z,21.19
2023-04-22T06:42:03.670Z,21.11
2023-04-22T06:44:42.662Z,19.99
2023-04-22T06:47:22.401Z,20.82
2023-04-22T06:50:01.135Z,21.24
2023-04-22T06:52:37.865Z,19.68
2023-04-22T06:55:06.779Z,21.26
2023-04-22T06:57:34.934Z,19.48
2023-04-22T07:00:04.598Z,20.26
2023-04-22T07:02:33.388Z,20.01
2023-04-22T07:05:09.234Z,20.51
2023-04-22T07:07:38.235Z,20.28
2023-04-22T07:10:07.512Z,19.59
2023-04-22T07:12:42.496Z,21.23
2023-04-22T07:15:13.116Z,20.74
2023-04-22T07:17:50.638Z,20.74
2023-04-22T07:20:21.744Z,20.17
2023-04-22T07:22:49.704Z,20.49
2023-04-22T07:25:17.721Z,19.69
2023-04-22T07:27:47.975Z,20.83
2023-04-22T07:30:17.221Z,19.88
2023-04-22T07:32:47.565Z,21.44
2023-04-22T07:35:16.649Z,21.38
2023-04-22T07:37:46.918Z,21.21
2023-04-22T07:40:14.852Z,21.13
2023-04-22T07:42:42.882Z,20.71
2023-04-22T07:45:12.590Z,20.28
2023-04-22T07:47:40.845Z,21.62
2023-04-22T07:50:09.042Z,21.46
2023-04-22T07:52:36.955Z,21.67
2023-04-22T07:55:05.458Z,20.38
2023-04-22T07:57:38.771Z,20.74
2023-04-22T08:00:11.525Z,20.83
2023-04-22T08:02:43.747Z,19.84
2023-04-22T08:05:11.969Z,21.64
2023-04-22T08:07:39.952Z,21.57
2023-04-22T08:10:08.440Z,21.64
2023-04-22T08:12:40.718Z,21.63
2023-04-22T08:15:12.744Z,21.40
2023-04-22T08:17:43.780Z,21.68
2023-04-22T08:20:12.222Z,21.54
2023-04-22T08:22:40.090Z,21.35
2023-04-22T08:25:08.774Z,21.69
2023-04-22T08:27:37.561Z,21.67
2023-04-22T08:30:06.916Z,21.40
2023-04-22T08:32:36.674Z,21.81
2023-04-22T08:35:07.915Z,21.66
2023-04-22T08:37:35.730Z,21.61
2023-04-22T08:40:06.356Z,21.78
2023-04-22T08:42:35.059Z,21.59
2023-04-22T08:45:04.643Z,21.79
2023-04-22T08:47:42.172Z,20.36
2023-04-22T08:50:10.282Z,20.66
2023-04-22T08:52:38.784Z,20.89
2023-04-22T08:55:07.225Z,21.85
2023-04-22T08:57:38.771Z,21.03
2023-04-22T09:00:09.120Z,21.85
2023-04-22T09:02:38.919Z,21.00
2023-04-22T09:05:08.835Z,20.62
2023-04-22T09:07:38.773Z,21.86
2023-04-22T09:10:16.334Z,20.98
2023-04-22T09:12:44.589Z,21.33
2023-04-22T09:15:12.861Z,20.31
2023-04-22T09:17:41.702Z,20.81
2023-04-22T09:20:10.566Z,21.99
2023-04-22T09:22:43.789Z,20.54
2023-04-22T09:25:30.263Z,20.57
2023-04-22T09:28:03.535Z,21.40
2023-04-22T09:30:38.071Z,20.58
2023-04-22T09:33:07.887Z,21.61
2023-04-22T09:35:40.245Z,20.97
2023-04-22T09:38:13.425Z,20.62
2023-04-22T09:40:51.329Z,20.27
2023-04-22T09:43:21.028Z,21.52
2023-04-22T09:45:53.558Z,21.11
2023-04-22T09:48:24.278Z,21.97
2023-04-22T09:51:17.173Z,20.53
2023-04-22T09:54:06.945Z,22.17
2023-04-22T09:56:53.741Z,21.48
2023-04-22T09:59:29.989Z,20.77
2023-04-22T10:02:04.780Z,22.12
2023-04-22T10:04:32.974Z,21.65
2023-04-22T10:07:02.899Z,21.19
2023-04-22T10:09:30.871Z,21.26
2023-04-22T10:11:59.263Z,21.17
2023-04-22T10:14:27.456Z,20.65
2023-04-22T10:17:02.603Z,21.29
2023-04-22T10:19:36.836Z,22.12
2023-04-22T10:22:22.165Z,20.71
2023-04-22T10:24:55.591Z,21.57
2023-04-22T10:27:23.982Z,21.05
2023-04-22T10:29:57.474Z,20.69
2023-04-22T10:32:29.183Z,20.62
2023-04-22T10:35:12.843Z,20.90
2023-04-22T10:37:49.126Z,21.37
2023-04-22T10:40:41.157Z,21.66
2023-04-22T10:43:22.285Z,21.92
2023-04-22T10:48:53.237Z,20.93
2023-04-22T10:51:43.347Z,22.26
2023-04-22T10:54:37.452Z,22.25
2023-04-22T10:57:17.636Z,21.65
2023-04-22T10:59:58.363Z,20.55
2023-04-22T11:02:42.529Z,22.27
2023-04-22T11:05:27.992Z,20.58
2023-04-22T11:08:29.537Z,22.30
2023-04-22T11:11:10.079Z,20.88
2023-04-22T11:13:42.796Z,20.74
2023-04-22T11:16:24.714Z,20.92
2023-04-22T11:18:53.455Z,20.72
2023-04-22T11:21:24.165Z,20.83
2023-04-22T11:24:09.458Z,21.04
2023-04-22T11:26:37.944Z,20.79
2023-04-22T11:29:33.724Z,22.34
2023-04-22T11:32:23.838Z,21.11
2023-04-22T11:35:00.214Z,21.55
2023-04-22T11:37:29.583Z,21.15
2023-04-22T11:40:21.404Z,20.79
2023-04-22T11:43:10.922Z,21.28
2023-04-22T11:45:47.028Z,20.59
2023-04-22T11:48:24.073Z,22.45
2023-04-22T11:51:22.206Z,21.48
2023-04-22T11:54:05.617Z,21.38
2023-04-22T11:56:41.211Z,20.85
2023-04-22T11:59:15.516Z,21.47
2023-04-22T12:01:53.763Z,21.23
2023-04-22T12:04:27.801Z,21.66
2023-04-22T12:06:59.905Z,21.70
2023-04-22T12:09:31.157Z,21.95
2023-04-22T12:11:59.068Z,21.44
2023-04-22T12:14:36.269Z,22.36
2023-04-22T12:17:09.461Z,21.65
2023-04-22T12:19:38.167Z,21.91
2023-04-22T12:22:06.373Z,21.86
2023-04-22T12:24:34.401Z,22.01
2023-04-22T12:27:03.885Z,20.81
2023-04-22T12:29:33.758Z,22.42
2023-04-22T12:32:04.177Z,22.01
2023-04-22T12:34:44.487Z,21.24
2023-04-22T12:39:58.656Z,21.55
2023-04-22T12:42:28.750Z,22.64
2023-04-22T12:45:04.722Z,22.12
2023-04-22T12:47:33.490Z,21.05
2023-04-22T12:50:06.432Z,21.81
2023-04-22T12:52:35.944Z,22.16
2023-04-22T12:55:04.978Z,22.06
2023-04-22T12:57:33.226Z,21.78
2023-04-22T13:00:08.081Z,21.21
2023-04-22T13:02:37.024Z,21.43
2023-04-22T13:05:05.185Z,22.48
2023-04-22T13:07:33.343Z,22.03
2023-04-22T13:10:01.104Z,22.70
2023-04-22T13:12:28.888Z,21.54
2023-04-22T13:14:56.982Z,21.44
2023-04-22T13:17:25.127Z,21.62
2023-04-22T13:19:53.147Z,21.22
2023-04-22T13:22:24.000Z,21.13
2023-04-22T13:24:52.155Z,21.96
2023-04-22T13:27:20.346Z,22.00
2023-04-22T13:29:48.697Z,21.45
2023-04-22T13:32:16.784Z,21.16
2023-04-22T13:34:45.918Z,21.58
2023-04-22T13:37:15.111Z,22.35
2023-04-22T13:39:45.783Z,22.73
2023-04-22T13:42:14.198Z,22.89
2023-04-22T13:44:42.757Z,22.44
2023-04-22T13:47:11.710Z,22.68
2023-04-22T13:52:50.620Z,22.18
2023-04-22T13:55:22.618Z,22.94
2023-04-22T13:57:59.900Z,22.47
2023-04-22T14:00:49.373Z,22.10
2023-04-22T14:03:17.823Z,21.49
2023-04-22T14:05:47.548Z,22.19
2023-04-22T14:08:17.886Z,22.96
2023-04-22T14:10:48.966Z,21.58
2023-04-22T14:13:18.629Z,21.94
2023-04-22T14:15:51.072Z,22.61
2023-04-22T14:18:28.025Z,21.85
2023-04-22T14:21:02.968Z,21.86
2023-04-22T14:24:02.425Z,21.46
2023-04-22T14:26:35.996Z,22.31
2023-04-22T14:29:04.854Z,22.27
2023-04-22T14:32:06.920Z,21.28
2023-04-22T14:35:04.693Z,22.37
2023-04-22T14:37:36.498Z,21.34
2023-04-22T14:40:11.098Z,21.38
2023-04-22T14:42:41.236Z,22.13
2023-04-22T14:45:25.823Z,21.24
2023-04-22T14:48:13.990Z,21.29
2023-04-22T14:50:54.699Z,21.22
2023-04-22T14:53:30.357Z,21.31
2023-04-22T14:55:58.295Z,22.44
2023-04-22T14:58:27.158Z,22.87
2023-04-22T15:00:54.883Z,22.76
2023-04-22T15:03:22.863Z,22.78
2023-04-22T15:05:52.470Z,22.68
2023-04-22T15:08:20.828Z,22.44
2023-04-22T15:10:50.479Z,22.79
2023-04-22T15:13:18.525Z,22.69
2023-04-22T15:15:47.042Z,22.78
2023-04-22T15:18:14.854Z,22.76
2023-04-22T15:20:42.682Z,22.59
2023-04-22T15:23:10.676Z,22.72
2023-04-22T15:25:38.513Z,22.73
2023-04-22T15:28:06.466Z,22.57
2023-04-22T15:30:34.270Z,22.08
2023-04-22T15:33:02.239Z,22.24
2023-04-22T15:35:31.236Z,22.30
2023-04-22T15:37:59.147Z,21.96
2023-04-22T15:40:27.044Z,21.74
2023-04-22T15:42:54.703Z,22.64
2023-04-22T15:45:22.470Z,22.50
2023-04-22T15:47:52.476Z,22.56
2023-04-22T15:50:23.585Z,22.73
2023-04-22T15:52:51.482Z,21.46
2023-04-22T15:55:19.276Z,22.74
2023-04-22T15:57:47.325Z,22.29
2023-04-22T16:00:16.938Z,22.38
2023-04-22T16:02:45.265Z,22.18
2023-04-22T16:05:14.707Z,22.28
2023-04-22T16:07:42.889Z,22.58
2023-04-22T16:10:11.269Z,22.68
2023-04-22T16:12:38.992Z,22.68
2023-04-22T16:15:07.858Z,22.50
2023-04-22T16:17:35.875Z,22.57
2023-04-22T16:20:08.688Z,22.68
2023-04-22T16:22:37.263Z,22.68
2023-04-22T16:25:05.902Z,22.22
2023-04-22T16:27:33.937Z,22.40
2023-04-22T16:30:02.105Z,22.53
2023-04-22T16:32:29.986Z,22.65
2023-04-22T16:34:57.729Z,22.61
2023-04-22T16:37:26.908Z,22.61
2023-04-22T16:39:55.630Z,22.59
2023-04-22T16:42:23.752Z,22.20
2023-04-22T16:44:51.800Z,22.19
2023-04-22T16:47:20.248Z,22.48
2023-04-22T16:49:48.169Z,22.35
2023-04-22T16:52:16.229Z,22.53
2023-04-22T16:54:44.032Z,22.41
2023-04-22T16:57:12.065Z,22.43
2023-04-22T16:59:40.442Z,22.47
2023-04-22T17:02:09.037Z,22.48
2023-04-22T17:04:37.165Z,22.53
2023-04-22T17:07:04.976Z,22.44
2023-04-22T17:09:33.303Z,22.53
2023-04-22T17:12:02.077Z,22.42
2023-04-22T17:14:30.303Z,22.39
2023-04-22T17:16:58.112Z,22.49
2023-04-22T17:19:26.177Z,22.10
2023-04-22T17:21:54.021Z,22.45
2023-04-22T17:24:22.486Z,22.02
2023-04-22T17:26:50.289Z,22.00
2023-04-22T17:29:21.956Z,22.44
2023-04-22T17:31:50.937Z,22.21
2023-04-22T17:34:19.112Z,21.22
2023-04-22T17:36:47.136Z,22.36
2023-04-22T17:39:15.084Z,22.19
2023-04-22T17:41:44.084Z,22.01
2023-04-22T17:44:14.709Z,22.36
2023-04-22T17:46:42.619Z,22.28
2023-04-22T17:49:10.526Z,22.36
2023-04-22T17:51:38.304Z,22.13
2023-04-22T17:54:06.448Z,22.23
2023-04-22T17:56:34.178Z,22.39
2023-04-22T17:59:02.644Z,22.26
2023-04-22T18:01:30.465Z,22.01
2023-04-22T18:04:01.642Z,22.30
2023-04-22T18:06:29.382Z,22.24
2023-04-22T18:08:57.149Z,22.28
2023-04-22T18:11:25.284Z,21.99
2023-04-22T18:13:53.050Z,22.23
2023-04-22T18:16:21.003Z,22.23
2023-04-22T18:18:48.746Z,22.14
2023-04-22T18:21:16.853Z,21.90
2023-04-22T18:23:44.699Z,22.10
2023-04-22T18:26:12.444Z,22.18
2023-04-22T18:28:40.428Z,22.21
2023-04-22T18:31:09.811Z,22.21
2023-04-22T18:33:37.668Z,22.04
2023-04-22T18:36:07.181Z,22.00
2023-04-22T18:38:39.134Z,22.12
2023-04-22T18:41:07.006Z,22.24
2023-04-22T18:43:34.848Z,21.99
2023-04-22T18:46:03.079Z,21.76
2023-04-22T18:48:30.975Z,22.04
2023-04-22T18:50:58.863Z,22.34
2023-04-22T18:53:26.742Z,22.21
2023-04-22T18:55:54.610Z,22.00
2023-04-22T18:58:23.472Z,22.10
2023-04-22T19:00:51.770Z,22.18
2023-04-22T19:03:22.814Z,22.31
2023-04-22T19:05:51.305Z,21.05
2023-04-22T19:08:19.116Z,22.14
2023-04-22T19:10:46.995Z,22.06
2023-04-22T19:13:28.560Z,21.71
2023-04-22T19:15:58.271Z,22.12
2023-04-22T19:18:26.730Z,22.04
2023-04-22T19:20:57.755Z,21.99
2023-04-22T19:23:25.809Z,21.12
2023-04-22T19:25:54.385Z,21.98
2023-04-22T19:28:22.318Z,21.98
2023-04-22T19:30:52.415Z,22.09
2023-04-22T19:33:24.659Z,22.08
2023-04-22T19:35:55.873Z,21.94
2023-04-22T19:38:25.428Z,21.71
2023-04-22T19:41:06.606Z,21.52
2023-04-22T19:43:37.821Z,22.03
2023-04-22T19:46:12.414Z,21.37
2023-04-22T19:48:46.333Z,20.83
2023-04-22T19:51:17.000Z,20.89
2023-04-22T19:53:46.421Z,21.19
2023-04-22T19:56:16.508Z,21.52
2023-04-22T19:58:44.515Z,20.64
2023-04-22T20:01:13.722Z,21.93
2023-04-22T20:03:42.422Z,20.39
2023-04-22T20:06:19.516Z,20.93
2023-04-22T20:08:48.803Z,20.62
2023-04-22T20:11:21.412Z,21.99
2023-04-22T20:13:49.816Z,20.44
2023-04-22T20:16:23.877Z,20.29
2023-04-22T20:18:54.551Z,20.33
2023-04-22T20:21:23.299Z,20.33
2023-04-22T20:23:54.484Z,20.33
2023-04-22T20:26:22.711Z,21.35
2023-04-22T20:28:56.082Z,20.36
2023-04-22T20:31:26.936Z,21.44
2023-04-22T20:33:57.481Z,21.10
2023-04-22T20:36:26.685Z,21.72
2023-04-22T20:38:55.396Z,21.11
2023-04-22T20:41:25.103Z,21.63
2023-04-22T20:43:53.499Z,21.38
2023-04-22T20:46:23.428Z,20.58
2023-04-22T20:48:52.073Z,20.30
2023-04-22T20:51:26.281Z,20.52
2023-04-22T20:53:55.605Z,21.92
2023-04-22T20:56:26.014Z,21.59
2023-04-22T20:58:54.362Z,21.46
2023-04-22T21:01:22.430Z,21.17
2023-04-22T21:03:53.429Z,20.57
2023-04-22T21:06:22.275Z,22.23
2023-04-22T21:08:57.606Z,22.03
2023-04-22T21:11:32.114Z,22.12
2023-04-22T21:14:04.878Z,21.10
2023-04-22T21:16:44.578Z,21.36
2023-04-22T21:19:12.705Z,21.69
2023-04-22T21:21:41.659Z,21.30
2023-04-22T21:24:11.712Z,20.80
2023-04-22T21:26:40.397Z,20.54
2023-04-22T21:29:08.680Z,22.09
2023-04-22T21:31:38.117Z,21.83
2023-04-22T21:34:10.545Z,21.31
2023-04-22T21:36:39.340Z,21.86
2023-04-22T21:39:08.527Z,20.62
2023-04-22T21:41:36.679Z,21.15
2023-04-22T21:44:09.281Z,21.62
2023-04-22T21:46:37.387Z,20.68
2023-04-22T21:49:05.633Z,21.79
2023-04-22T21:51:34.833Z,20.86
2023-04-22T21:54:03.313Z,22.22
2023-04-22T21:56:34.777Z,21.20
2023-04-22T21:59:02.978Z,20.87
2023-04-22T22:01:33.681Z,21.69
2023-04-22T22:04:05.019Z,20.58
2023-04-22T22:06:33.874Z,21.88
2023-04-22T22:09:01.979Z,22.04
2023-04-22T22:11:31.324Z,22.23
2023-04-22T22:13:59.579Z,22.22
2023-04-22T22:16:27.732Z,22.12
2023-04-22T22:18:58.121Z,22.23
2023-04-22T22:21:26.141Z,22.07
2023-04-22T22:23:54.077Z,21.83
2023-04-22T22:26:22.278Z,22.17
2023-04-22T22:28:50.188Z,22.00
2023-04-22T22:31:18.405Z,22.19
2023-04-22T22:33:46.186Z,22.02
2023-04-22T22:36:14.058Z,22.19
2023-04-22T22:38:42.828Z,22.13
2023-04-22T22:41:10.698Z,22.04
2023-04-22T22:43:38.697Z,22.12
2023-04-22T22:46:06.705Z,20.88
2023-04-22T22:48:46.049Z,20.51
2023-04-22T22:51:17.145Z,21.64
2023-04-22T22:53:48.799Z,20.97
2023-04-22T22:56:18.308Z,20.46
2023-04-22T22:58:48.423Z,20.89
2023-04-22T23:01:19.469Z,22.13
2023-04-22T23:03:49.087Z,21.99
2023-04-22T23:06:17.789Z,22.01
2023-04-22T23:08:45.459Z,22.01
2023-04-22T23:11:17.177Z,22.12
2023-04-22T23:13:45.308Z,21.87
2023-04-22T23:16:13.165Z,22.11
2023-04-22T23:18:41.857Z,21.77
2023-04-22T23:21:11.920Z,22.09
2023-04-22T23:23:41.368Z,21.69
2023-04-22T23:26:09.772Z,21.28
2023-04-22T23:28:38.197Z,21.46
2023-04-22T23:31:07.424Z,20.09
2023-04-22T23:33:39.219Z,21.15
2023-04-22T23:36:09.763Z,20.33
2023-04-22T23:38:37.950Z,20.80
2023-04-22T23:41:09.014Z,20.33
2023-04-22T23:43:37.296Z,20.26
2023-04-22T23:46:08.546Z,21.85
2023-04-22T23:48:37.309Z,21.92
2023-04-22T23:51:05.447Z,21.16
2023-04-22T23:53:33.374Z,21.54
2023-04-22T23:56:01.721Z,20.67
2023-04-22T23:58:29.819Z,20.90
